Weather at Kukës International Airport

Public forecast

Using degrees Celsius for public forecast. Weather courtesy of forecast.io.

Closest aviation weather report (METAR) to Kukës International Airport

Closest report is Priština Adem Jashari International Airport, 42.4 nm (78.5 km) NE.

2024/06/18 12:00 (retrieved 9 minutes ago)

BKPR 181200Z 13004KT 020V190 CAVOK 31/15 Q1019 NOSIG

Aviation forecast (TAF) for Kukës International Airport

2024/06/18 12:00 (retrieved 9 minutes ago)

TAF LAKU 181100Z 1812/1912 VRB04KT CAVOK TX36/1912Z TN20/1904Z